createdAt,value
2019-05-23T00:00:07.051Z,1014.77
2019-05-23T00:01:07.054Z,1014.75
2019-05-23T00:02:07.044Z,1014.75
2019-05-23T00:03:07.056Z,1014.76
2019-05-23T00:04:07.050Z,1014.78
2019-05-23T00:05:07.032Z,1014.83
2019-05-23T00:06:07.042Z,1014.82
2019-05-23T00:07:07.038Z,1014.78
2019-05-23T00:08:07.032Z,1014.79
2019-05-23T00:09:07.018Z,1014.78
2019-05-23T00:10:07.037Z,1014.80
2019-05-23T00:11:07.029Z,1014.78
2019-05-23T00:12:07.026Z,1014.82
2019-05-23T00:13:07.007Z,1014.80
2019-05-23T00:14:07.003Z,1014.75
2019-05-23T00:15:07.025Z,1014.80
2019-05-23T00:16:07.008Z,1014.80
2019-05-23T00:17:07.020Z,1014.79
2019-05-23T00:18:06.992Z,1014.77
2019-05-23T00:19:06.988Z,1014.80
2019-05-23T00:20:06.974Z,1014.82
2019-05-23T00:21:06.991Z,1014.80
2019-05-23T00:22:06.972Z,1014.85
2019-05-23T00:23:06.971Z,1014.83
2019-05-23T00:24:06.969Z,1014.81
2019-05-23T00:25:06.969Z,1014.84
2019-05-23T00:26:06.978Z,1014.83
2019-05-23T00:27:06.965Z,1014.83
2019-05-23T00:28:06.959Z,1014.82
2019-05-23T00:29:10.471Z,1014.78
2019-05-23T00:30:06.941Z,1014.79
2019-05-23T00:31:06.943Z,1014.80
2019-05-23T00:32:06.937Z,1014.77
2019-05-23T00:33:06.926Z,1014.74
2019-05-23T00:34:06.932Z,1014.73
2019-05-23T00:35:06.923Z,1014.80
2019-05-23T00:36:06.918Z,1014.77
2019-05-23T00:37:06.923Z,1014.76
2019-05-23T00:38:06.914Z,1014.77
2019-05-23T00:39:06.929Z,1014.74
2019-05-23T00:40:06.930Z,1014.78
2019-05-23T00:41:06.911Z,1014.74
2019-05-23T00:42:06.895Z,1014.77
2019-05-23T00:43:06.893Z,1014.75
2019-05-23T00:44:07.093Z,1014.73
2019-05-23T00:45:06.892Z,1014.71
2019-05-23T00:46:06.889Z,1014.73
2019-05-23T00:47:06.894Z,1014.73
2019-05-23T00:48:06.884Z,1014.69
2019-05-23T00:49:06.859Z,1014.68
2019-05-23T00:50:06.865Z,1014.70
2019-05-23T00:51:06.961Z,1014.73
2019-05-23T00:52:06.858Z,1014.69
2019-05-23T00:53:06.869Z,1014.66
2019-05-23T00:54:06.877Z,1014.66
2019-05-23T00:55:06.848Z,1014.67
2019-05-23T00:56:06.854Z,1014.63
2019-05-23T00:57:06.840Z,1014.61
2019-05-23T00:58:06.825Z,1014.63
2019-05-23T00:59:06.818Z,1014.56
2019-05-23T01:00:06.821Z,1014.55
2019-05-23T01:01:06.824Z,1014.53
2019-05-23T01:02:06.812Z,1014.56
2019-05-23T01:03:06.812Z,1014.56
2019-05-23T01:04:06.820Z,1014.55
2019-05-23T01:05:06.812Z,1014.54
2019-05-23T01:06:06.798Z,1014.58
2019-05-23T01:07:06.789Z,1014.56
2019-05-23T01:08:06.800Z,1014.58
2019-05-23T01:09:06.998Z,1014.61
2019-05-23T01:10:06.791Z,1014.58
2019-05-23T01:11:06.982Z,1014.58
2019-05-23T01:12:06.984Z,1014.57
2019-05-23T01:13:06.761Z,1014.58
2019-05-23T01:14:06.757Z,1014.57
2019-05-23T01:15:06.960Z,1014.59
2019-05-23T01:16:06.748Z,1014.62
2019-05-23T01:17:06.815Z,1014.58
2019-05-23T01:18:06.742Z,1014.54
2019-05-23T01:19:06.749Z,1014.54
2019-05-23T01:20:06.741Z,1014.54
2019-05-23T01:21:06.740Z,1014.56
2019-05-23T01:22:06.946Z,1014.54
2019-05-23T01:23:06.733Z,1014.55
2019-05-23T01:24:06.736Z,1014.54
2019-05-23T01:25:06.949Z,1014.54
2019-05-23T01:26:06.720Z,1014.52
2019-05-23T01:27:06.718Z,1014.56
2019-05-23T01:28:06.699Z,1014.50
2019-05-23T01:29:06.710Z,1014.54
2019-05-23T01:30:06.690Z,1014.51
2019-05-23T01:31:06.685Z,1014.54
2019-05-23T01:32:06.764Z,1014.53
2019-05-23T01:33:06.740Z,1014.52
2019-05-23T01:34:06.688Z,1014.49
2019-05-23T01:35:06.667Z,1014.54
2019-05-23T01:36:06.679Z,1014.52
2019-05-23T01:37:06.660Z,1014.56
2019-05-23T01:38:06.664Z,1014.56
2019-05-23T01:39:06.662Z,1014.54
2019-05-23T01:40:06.687Z,1014.56
2019-05-23T01:41:06.660Z,1014.56
2019-05-23T01:42:06.645Z,1014.51
2019-05-23T01:43:06.656Z,1014.55
2019-05-23T01:44:06.831Z,1014.52
2019-05-23T01:45:06.638Z,1014.50
2019-05-23T01:46:06.634Z,1014.50
2019-05-23T01:47:06.619Z,1014.49
2019-05-23T01:48:06.824Z,1014.48
2019-05-23T01:49:06.833Z,1014.47
2019-05-23T01:50:06.839Z,1014.49
2019-05-23T01:51:06.605Z,1014.51
2019-05-23T01:52:06.619Z,1014.49
2019-05-23T01:53:06.619Z,1014.48
2019-05-23T01:54:06.603Z,1014.50
2019-05-23T01:55:06.600Z,1014.48
2019-05-23T01:56:06.594Z,1014.46
2019-05-23T01:57:06.782Z,1014.44
2019-05-23T01:58:06.582Z,1014.48
2019-05-23T01:59:06.570Z,1014.43
2019-05-23T02:00:10.594Z,1014.43
2019-05-23T02:01:06.565Z,1014.42
2019-05-23T02:02:06.556Z,1014.47
2019-05-23T02:03:06.555Z,1014.47
2019-05-23T02:04:06.558Z,1014.53
2019-05-23T02:05:06.566Z,1014.56
2019-05-23T02:06:06.756Z,1014.55
2019-05-23T02:07:06.731Z,1014.57
2019-05-23T02:08:06.751Z,1014.53
2019-05-23T02:09:06.524Z,1014.52
2019-05-23T02:10:06.737Z,1014.50
2019-05-23T02:11:06.516Z,1014.48
2019-05-23T02:12:06.522Z,1014.54
2019-05-23T02:13:06.505Z,1014.49
2019-05-23T02:14:06.528Z,1014.51
2019-05-23T02:15:06.511Z,1014.50
2019-05-23T02:16:06.503Z,1014.48
2019-05-23T02:17:06.492Z,1014.49
2019-05-23T02:18:06.503Z,1014.49
2019-05-23T02:19:06.479Z,1014.45
2019-05-23T02:20:06.697Z,1014.43
2019-05-23T02:21:06.680Z,1014.45
2019-05-23T02:22:06.470Z,1014.47
2019-05-23T02:23:06.666Z,1014.44
2019-05-23T02:24:06.462Z,1014.44
2019-05-23T02:25:06.451Z,1014.45
2019-05-23T02:26:06.457Z,1014.46
2019-05-23T02:27:06.443Z,1014.45
2019-05-23T02:28:06.465Z,1014.43
2019-05-23T02:29:06.647Z,1014.41
2019-05-23T02:30:06.659Z,1014.41
2019-05-23T02:31:06.429Z,1014.40
2019-05-23T02:32:06.435Z,1014.40
2019-05-23T02:33:06.620Z,1014.44
2019-05-23T02:34:06.417Z,1014.42
2019-05-23T02:35:06.414Z,1014.40
2019-05-23T02:36:06.436Z,1014.38
2019-05-23T02:37:06.413Z,1014.38
2019-05-23T02:38:06.395Z,1014.38
2019-05-23T02:39:06.406Z,1014.40
2019-05-23T02:40:06.387Z,1014.38
2019-05-23T02:41:06.385Z,1014.41
2019-05-23T02:42:06.593Z,1014.40
2019-05-23T02:43:06.377Z,1014.45
2019-05-23T02:44:06.613Z,1014.42
2019-05-23T02:45:06.588Z,1014.41
2019-05-23T02:46:06.447Z,1014.41
2019-05-23T02:47:06.376Z,1014.38
2019-05-23T02:48:06.378Z,1014.38
2019-05-23T02:49:06.347Z,1014.38
2019-05-23T02:50:06.362Z,1014.33
2019-05-23T02:51:06.548Z,1014.32
2019-05-23T02:52:06.334Z,1014.29
2019-05-23T02:53:06.332Z,1014.33
2019-05-23T02:54:06.338Z,1014.31
2019-05-23T02:55:06.334Z,1014.35
2019-05-23T02:56:06.516Z,1014.36
2019-05-23T02:57:06.335Z,1014.36
2019-05-23T02:58:06.316Z,1014.32
2019-05-23T02:59:06.310Z,1014.33
2019-05-23T03:00:06.301Z,1014.34
2019-05-23T03:01:06.304Z,1014.37
2019-05-23T03:02:06.283Z,1014.34
2019-05-23T03:03:06.294Z,1014.36
2019-05-23T03:04:06.279Z,1014.31
2019-05-23T03:05:06.274Z,1014.33
2019-05-23T03:06:06.290Z,1014.30
2019-05-23T03:07:06.264Z,1014.32
2019-05-23T03:08:06.270Z,1014.29
2019-05-23T03:09:06.257Z,1014.30
2019-05-23T03:10:06.284Z,1014.29
2019-05-23T03:11:06.241Z,1014.29
2019-05-23T03:12:06.240Z,1014.27
2019-05-23T03:13:06.455Z,1014.26
2019-05-23T03:14:06.452Z,1014.23
2019-05-23T03:15:06.435Z,1014.25
2019-05-23T03:16:06.231Z,1014.29
2019-05-23T03:17:06.224Z,1014.20
2019-05-23T03:18:06.218Z,1014.22
2019-05-23T03:19:06.216Z,1014.23
2019-05-23T03:20:06.207Z,1014.23
2019-05-23T03:21:06.193Z,1014.20
2019-05-23T03:22:06.393Z,1014.21
2019-05-23T03:23:06.206Z,1014.21
2019-05-23T03:24:06.397Z,1014.22
2019-05-23T03:25:06.383Z,1014.20
2019-05-23T03:26:06.182Z,1014.19
2019-05-23T03:27:06.394Z,1014.20
2019-05-23T03:28:06.164Z,1014.20
2019-05-23T03:29:06.371Z,1014.20
2019-05-23T03:30:06.150Z,1014.17
2019-05-23T03:31:26.867Z,1014.19
2019-05-23T03:32:06.373Z,1014.21
2019-05-23T03:33:06.155Z,1014.22
2019-05-23T03:34:06.344Z,1014.19
2019-05-23T03:35:06.124Z,1014.15
2019-05-23T03:36:06.135Z,1014.17
2019-05-23T03:37:06.117Z,1014.18
2019-05-23T03:38:06.116Z,1014.18
2019-05-23T03:39:06.116Z,1014.17
2019-05-23T03:40:06.110Z,1014.20
2019-05-23T03:41:06.315Z,1014.20
2019-05-23T03:42:06.102Z,1014.17
2019-05-23T03:43:06.292Z,1014.18
2019-05-23T03:44:06.094Z,1014.17
2019-05-23T03:45:06.306Z,1014.12
2019-05-23T03:46:06.088Z,1014.14
2019-05-23T03:47:06.273Z,1014.15
2019-05-23T03:48:06.089Z,1014.15
2019-05-23T03:49:06.057Z,1014.12
2019-05-23T03:50:06.078Z,1014.18
2019-05-23T03:51:06.044Z,1014.11
2019-05-23T03:52:06.044Z,1014.14
2019-05-23T03:53:06.051Z,1014.11
2019-05-23T03:54:06.044Z,1014.16
2019-05-23T03:55:06.031Z,1014.10
2019-05-23T03:56:06.240Z,1014.14
2019-05-23T03:58:06.014Z,1014.13
2019-05-23T03:59:06.005Z,1014.13
2019-05-23T04:00:06.224Z,1014.14
2019-05-23T04:01:06.029Z,1014.15
2019-05-23T04:02:06.021Z,1014.16
2019-05-23T04:03:05.996Z,1014.14
2019-05-23T04:04:05.994Z,1014.13
2019-05-23T04:05:06.009Z,1014.15
2019-05-23T04:06:06.189Z,1014.12
2019-05-23T04:07:05.984Z,1014.12
2019-05-23T04:08:05.980Z,1014.14
2019-05-23T04:09:05.960Z,1014.13
2019-05-23T04:10:05.954Z,1014.13
2019-05-23T04:11:05.956Z,1014.14
2019-05-23T04:12:05.947Z,1014.17
2019-05-23T04:13:05.981Z,1014.19
2019-05-23T04:14:05.936Z,1014.16
2019-05-23T04:15:05.942Z,1014.17
2019-05-23T04:16:05.940Z,1014.17
2019-05-23T04:17:05.932Z,1014.19
2019-05-23T04:18:05.924Z,1014.15
2019-05-23T04:19:05.924Z,1014.18
2019-05-23T04:20:05.901Z,1014.17
2019-05-23T04:21:05.896Z,1014.18
2019-05-23T04:22:06.142Z,1014.17
2019-05-23T04:23:05.929Z,1014.19
2019-05-23T04:24:05.914Z,1014.19
2019-05-23T04:25:05.875Z,1014.21
2019-05-23T04:26:05.881Z,1014.23
2019-05-23T04:27:06.087Z,1014.20
2019-05-23T04:28:05.873Z,1014.21
2019-05-23T04:29:05.860Z,1014.17
2019-05-23T04:30:05.851Z,1014.16
2019-05-23T04:31:05.849Z,1014.18
2019-05-23T04:32:08.903Z,1014.16
2019-05-23T04:33:05.846Z,1014.19
2019-05-23T04:34:05.836Z,1014.17
2019-05-23T04:35:05.839Z,1014.18
2019-05-23T04:36:05.840Z,1014.17
2019-05-23T04:37:05.827Z,1014.16
2019-05-23T04:38:05.812Z,1014.19
2019-05-23T04:39:05.842Z,1014.18
2019-05-23T04:40:05.810Z,1014.23
2019-05-23T04:41:05.803Z,1014.19
2019-05-23T04:42:05.807Z,1014.20
2019-05-23T04:43:05.789Z,1014.19
2019-05-23T04:44:05.781Z,1014.17
2019-05-23T04:45:05.782Z,1014.19
2019-05-23T04:46:05.785Z,1014.15
2019-05-23T04:47:05.780Z,1014.18
2019-05-23T04:48:05.766Z,1014.14
2019-05-23T04:49:05.763Z,1014.16
2019-05-23T04:50:05.985Z,1014.13
2019-05-23T04:51:05.756Z,1014.13
2019-05-23T04:52:05.764Z,1014.11
2019-05-23T04:53:05.753Z,1014.10
2019-05-23T04:54:05.764Z,1014.12
2019-05-23T04:55:05.746Z,1014.11
2019-05-23T04:56:05.728Z,1014.12
2019-05-23T04:57:05.741Z,1014.10
2019-05-23T04:58:05.756Z,1014.07
2019-05-23T04:59:05.732Z,1014.11
2019-05-23T05:00:05.704Z,1014.10
2019-05-23T05:01:05.701Z,1014.14
2019-05-23T05:02:05.909Z,1014.16
2019-05-23T05:03:05.703Z,1014.19
2019-05-23T05:04:05.686Z,1014.16
2019-05-23T05:05:05.916Z,1014.16
2019-05-23T05:06:05.729Z,1014.15
2019-05-23T05:07:05.694Z,1014.19
2019-05-23T05:08:05.903Z,1014.18
2019-05-23T05:09:05.679Z,1014.18
2019-05-23T05:10:05.682Z,1014.20
2019-05-23T05:11:05.671Z,1014.20
2019-05-23T05:12:05.655Z,1014.18
2019-05-23T05:13:05.663Z,1014.20
2019-05-23T05:14:05.665Z,1014.26
2019-05-23T05:15:05.638Z,1014.24
2019-05-23T05:16:05.637Z,1014.22
2019-05-23T05:17:05.651Z,1014.23
2019-05-23T05:18:05.641Z,1014.27
2019-05-23T05:19:05.622Z,1014.24
2019-05-23T05:20:05.650Z,1014.25
2019-05-23T05:21:05.824Z,1014.25
2019-05-23T05:22:05.608Z,1014.25
2019-05-23T05:23:05.600Z,1014.25
2019-05-23T05:24:05.813Z,1014.26
2019-05-23T05:25:05.617Z,1014.26
2019-05-23T05:26:05.798Z,1014.28
2019-05-23T05:27:05.596Z,1014.31
2019-05-23T05:28:05.585Z,1014.29
2019-05-23T05:29:05.607Z,1014.30
2019-05-23T05:30:05.594Z,1014.31
2019-05-23T05:31:05.590Z,1014.32
2019-05-23T05:32:05.580Z,1014.31
2019-05-23T05:33:05.767Z,1014.32
2019-05-23T05:34:05.560Z,1014.35
2019-05-23T05:35:05.590Z,1014.38
2019-05-23T05:36:05.753Z,1014.34
2019-05-23T05:37:05.562Z,1014.33
2019-05-23T05:38:05.817Z,1014.34
2019-05-23T05:39:05.736Z,1014.33
2019-05-23T05:40:05.756Z,1014.36
2019-05-23T05:41:05.543Z,1014.34
2019-05-23T05:42:05.540Z,1014.33
2019-05-23T05:43:05.542Z,1014.34
2019-05-23T05:44:05.527Z,1014.34
2019-05-23T05:45:05.526Z,1014.35
2019-05-23T05:46:05.514Z,1014.41
2019-05-23T05:47:05.511Z,1014.43
2019-05-23T05:48:05.500Z,1014.43
2019-05-23T05:49:05.528Z,1014.43
2019-05-23T05:50:05.709Z,1014.46
2019-05-23T05:51:05.602Z,1014.46
2019-05-23T05:52:05.705Z,1014.46
2019-05-23T05:53:05.510Z,1014.47
2019-05-23T05:54:05.519Z,1014.48
2019-05-23T05:55:05.474Z,1014.47
2019-05-23T05:56:05.639Z,1014.48
2019-05-23T05:57:05.495Z,1014.47
2019-05-23T05:58:05.476Z,1014.49
2019-05-23T05:59:05.469Z,1014.47
2019-05-23T06:00:05.462Z,1014.47
2019-05-23T06:01:05.471Z,1014.51
2019-05-23T06:02:05.449Z,1014.50
2019-05-23T06:03:05.937Z,1014.52
2019-05-23T06:04:05.453Z,1014.51
2019-05-23T06:05:05.460Z,1014.56
2019-05-23T06:06:05.438Z,1014.55
2019-05-23T06:07:05.447Z,1014.53
2019-05-23T06:08:05.446Z,1014.56
2019-05-23T06:09:05.446Z,1014.62
2019-05-23T06:10:05.434Z,1014.56
2019-05-23T06:11:05.438Z,1014.59
2019-05-23T06:12:05.429Z,1014.58
2019-05-23T06:13:05.405Z,1014.58
2019-05-23T06:14:05.402Z,1014.56
2019-05-23T06:15:05.454Z,1014.57
2019-05-23T06:16:05.398Z,1014.58
2019-05-23T06:17:05.392Z,1014.58
2019-05-23T06:18:05.631Z,1014.60
2019-05-23T06:19:05.403Z,1014.57
2019-05-23T06:20:05.390Z,1014.58
2019-05-23T06:21:05.404Z,1014.60
2019-05-23T06:22:05.396Z,1014.59
2019-05-23T06:23:05.387Z,1014.60
2019-05-23T06:24:05.386Z,1014.63
2019-05-23T06:25:05.395Z,1014.60
2019-05-23T06:26:05.592Z,1014.55
2019-05-23T06:27:05.364Z,1014.60
2019-05-23T06:28:05.371Z,1014.59
2019-05-23T06:29:05.563Z,1014.59
2019-05-23T06:30:05.367Z,1014.61
2019-05-23T06:31:05.351Z,1014.61
2019-05-23T06:32:05.345Z,1014.64
2019-05-23T06:33:22.024Z,1014.62
2019-05-23T06:34:05.346Z,1014.64
2019-05-23T06:35:05.350Z,1014.68
2019-05-23T06:36:05.349Z,1014.63
2019-05-23T06:37:05.345Z,1014.62
2019-05-23T06:38:05.334Z,1014.60
2019-05-23T06:39:05.335Z,1014.58
2019-05-23T06:40:05.319Z,1014.59
2019-05-23T06:41:05.318Z,1014.59
2019-05-23T06:42:05.325Z,1014.58
2019-05-23T06:43:05.324Z,1014.59
2019-05-23T06:44:05.323Z,1014.61
2019-05-23T06:45:05.309Z,1014.59
2019-05-23T06:46:05.313Z,1014.57
2019-05-23T06:47:05.314Z,1014.57
2019-05-23T06:48:05.505Z,1014.62
2019-05-23T06:49:05.293Z,1014.61
2019-05-23T06:50:05.503Z,1014.63
2019-05-23T06:51:05.529Z,1014.63
2019-05-23T06:52:05.278Z,1014.62
2019-05-23T06:53:05.484Z,1014.62
2019-05-23T06:54:05.297Z,1014.65
2019-05-23T06:55:05.280Z,1014.65
2019-05-23T06:56:05.280Z,1014.66
2019-05-23T06:57:05.276Z,1014.68
2019-05-23T06:58:05.471Z,1014.66
2019-05-23T06:59:05.282Z,1014.70
2019-05-23T07:00:05.271Z,1014.79
2019-05-23T07:01:05.471Z,1014.75
2019-05-23T07:02:05.467Z,1014.70
2019-05-23T07:03:05.468Z,1014.73
2019-05-23T07:04:05.244Z,1014.69
2019-05-23T07:05:05.262Z,1014.71
2019-05-23T07:06:05.254Z,1014.70
2019-05-23T07:07:05.243Z,1014.73
2019-05-23T07:08:05.246Z,1014.77
2019-05-23T07:09:05.264Z,1014.75
2019-05-23T07:10:05.226Z,1014.81
2019-05-23T07:11:05.279Z,1014.76
2019-05-23T07:12:05.231Z,1014.70
2019-05-23T07:13:05.256Z,1014.71
2019-05-23T07:14:05.426Z,1014.74
2019-05-23T07:15:05.221Z,1014.77
2019-05-23T07:16:05.219Z,1014.78
2019-05-23T07:17:05.425Z,1014.68
2019-05-23T07:18:05.213Z,1014.64
2019-05-23T07:19:05.217Z,1014.65
2019-05-23T07:20:05.220Z,1014.66
2019-05-23T07:21:05.213Z,1014.66
2019-05-23T07:22:05.216Z,1014.65
2019-05-23T07:23:05.205Z,1014.65
2019-05-23T07:24:05.405Z,1014.66
2019-05-23T07:25:05.197Z,1014.67
2019-05-23T07:26:05.206Z,1014.68
2019-05-23T07:27:05.208Z,1014.69
2019-05-23T07:28:05.195Z,1014.72
2019-05-23T07:29:05.393Z,1014.73
2019-05-23T07:30:05.193Z,1014.71
2019-05-23T07:31:05.209Z,1014.76
2019-05-23T07:32:05.186Z,1014.76
2019-05-23T07:33:05.190Z,1014.71
2019-05-23T07:34:05.182Z,1014.75
2019-05-23T07:35:05.177Z,1014.71
2019-05-23T07:36:05.186Z,1014.67
2019-05-23T07:37:05.197Z,1014.68
2019-05-23T07:38:05.182Z,1014.71
2019-05-23T07:39:05.179Z,1014.66
2019-05-23T07:40:05.166Z,1014.68
2019-05-23T07:41:05.160Z,1014.63
2019-05-23T07:42:05.201Z,1014.64
2019-05-23T07:43:05.363Z,1014.67
2019-05-23T07:44:05.162Z,1014.68
2019-05-23T07:45:05.150Z,1014.61
2019-05-23T07:46:05.154Z,1014.66
2019-05-23T07:47:05.158Z,1014.63
2019-05-23T07:48:05.354Z,1014.59
2019-05-23T07:49:05.153Z,1014.62
2019-05-23T07:50:05.355Z,1014.60
2019-05-23T07:51:05.254Z,1014.61
2019-05-23T07:52:05.149Z,1014.57
2019-05-23T07:53:05.371Z,1014.60
2019-05-23T07:54:05.279Z,1014.61
2019-05-23T07:55:05.141Z,1014.62
2019-05-23T07:56:05.138Z,1014.60
2019-05-23T07:57:05.135Z,1014.61
2019-05-23T07:58:05.118Z,1014.72
2019-05-23T07:59:05.136Z,1014.69
2019-05-23T08:00:05.132Z,1014.73
2019-05-23T08:01:05.141Z,1014.80
2019-05-23T08:02:05.111Z,1014.60
2019-05-23T08:03:05.336Z,1014.60
2019-05-23T08:04:20.334Z,1014.63
2019-05-23T08:05:05.126Z,1014.65
2019-05-23T08:06:05.122Z,1014.59
2019-05-23T08:07:05.153Z,1014.60
2019-05-23T08:08:05.402Z,1014.59
2019-05-23T08:09:05.098Z,1014.61
2019-05-23T08:10:05.115Z,1014.59
2019-05-23T08:11:05.130Z,1014.58
2019-05-23T08:12:05.113Z,1014.55
2019-05-23T08:13:05.135Z,1014.59
2019-05-23T08:14:05.301Z,1014.59
2019-05-23T08:15:05.295Z,1014.57
2019-05-23T08:16:05.106Z,1014.56
2019-05-23T08:17:05.106Z,1014.60
2019-05-23T08:18:05.109Z,1014.58
2019-05-23T08:19:05.130Z,1014.56
2019-05-23T08:20:05.289Z,1014.55
2019-05-23T08:21:05.079Z,1014.55
2019-05-23T08:22:05.287Z,1014.53
2019-05-23T08:23:05.301Z,1014.56
2019-05-23T08:24:05.076Z,1014.54
2019-05-23T08:25:05.082Z,1014.53
2019-05-23T08:26:05.072Z,1014.53
2019-05-23T08:27:05.066Z,1014.58
2019-05-23T08:28:05.069Z,1014.53
2019-05-23T08:29:24.589Z,1014.55
2019-05-23T08:30:05.286Z,1014.58
2019-05-23T08:31:05.276Z,1014.54
2019-05-23T08:32:05.266Z,1014.55
2019-05-23T08:33:05.091Z,1014.50
2019-05-23T08:34:05.062Z,1014.50
2019-05-23T08:35:05.082Z,1014.55
2019-05-23T08:36:05.054Z,1014.48
2019-05-23T08:37:05.269Z,1014.51
2019-05-23T08:38:05.067Z,1014.49
2019-05-23T08:39:05.056Z,1014.49
2019-05-23T08:40:05.061Z,1014.48
2019-05-23T08:41:05.077Z,1014.48
2019-05-23T08:42:05.267Z,1014.50
2019-05-23T08:43:05.250Z,1014.52
2019-05-23T08:44:05.266Z,1014.51
2019-05-23T08:45:05.041Z,1014.48
2019-05-23T08:46:05.053Z,1014.49
2019-05-23T08:47:05.051Z,1014.50
2019-05-23T08:48:05.039Z,1014.50
2019-05-23T08:49:05.033Z,1014.49
2019-05-23T08:50:05.028Z,1014.50
2019-05-23T08:51:05.036Z,1014.49
2019-05-23T08:52:05.027Z,1014.48
2019-05-23T08:53:05.253Z,1014.47
2019-05-23T08:54:05.021Z,1014.45
2019-05-23T08:55:05.024Z,1014.50
2019-05-23T08:56:17.882Z,1014.46
2019-05-23T08:57:05.019Z,1014.42
2019-05-23T08:58:05.035Z,1014.42
2019-05-23T08:59:05.025Z,1014.41
2019-05-23T09:00:05.031Z,1014.39
2019-05-23T09:01:05.036Z,1014.35
2019-05-23T09:02:05.021Z,1014.40
2019-05-23T09:03:05.239Z,1014.43
2019-05-23T09:04:05.209Z,1014.38
2019-05-23T09:06:05.019Z,1014.32
2019-05-23T09:07:05.272Z,1014.35
2019-05-23T09:08:05.013Z,1014.36
2019-05-23T09:09:22.271Z,1014.31
2019-05-23T09:10:04.994Z,1014.34
2019-05-23T09:11:05.007Z,1014.30
2019-05-23T09:12:05.007Z,1014.30
2019-05-23T09:13:05.003Z,1014.29
2019-05-23T09:14:05.053Z,1014.24
2019-05-23T09:15:09.367Z,1014.26
2019-05-23T09:16:04.988Z,1014.24
2019-05-23T09:17:04.999Z,1014.25
2019-05-23T09:18:04.997Z,1014.26
2019-05-23T09:19:04.992Z,1014.25
2019-05-23T09:20:04.993Z,1014.24
2019-05-23T09:21:04.982Z,1014.20
2019-05-23T09:22:04.994Z,1014.25
2019-05-23T09:23:04.986Z,1014.26
2019-05-23T09:24:04.977Z,1014.27
2019-05-23T09:25:04.975Z,1014.27
2019-05-23T09:26:05.025Z,1014.29
2019-05-23T09:27:04.987Z,1014.27
2019-05-23T09:28:05.174Z,1014.29
2019-05-23T09:29:04.962Z,1014.21
2019-05-23T09:30:04.964Z,1014.26
2019-05-23T09:31:05.219Z,1014.27
2019-05-23T09:32:04.990Z,1014.30
2019-05-23T09:33:04.981Z,1014.25
2019-05-23T09:34:04.966Z,1014.26
2019-05-23T09:35:19.695Z,1014.26
2019-05-23T09:36:04.961Z,1014.27
2019-05-23T09:37:04.963Z,1014.26
2019-05-23T09:38:05.177Z,1014.25
2019-05-23T09:39:04.957Z,1014.22
2019-05-23T09:40:04.951Z,1014.28
2019-05-23T09:41:05.179Z,1014.28
2019-05-23T09:42:04.953Z,1014.25
2019-05-23T09:43:04.943Z,1014.27
2019-05-23T09:44:05.145Z,1014.26
2019-05-23T09:45:04.941Z,1014.21
2019-05-23T09:46:04.940Z,1014.23
2019-05-23T09:47:04.959Z,1014.22
2019-05-23T09:48:04.936Z,1014.19
2019-05-23T09:49:04.935Z,1014.16
2019-05-23T09:50:04.940Z,1014.16
2019-05-23T09:51:04.930Z,1014.15
2019-05-23T09:52:05.050Z,1014.15
2019-05-23T09:53:05.137Z,1014.17
2019-05-23T09:54:04.932Z,1014.13
2019-05-23T09:55:04.932Z,1014.12
2019-05-23T09:56:04.986Z,1014.10
2019-05-23T09:57:04.944Z,1014.08
2019-05-23T09:58:04.959Z,1014.09
2019-05-23T09:59:04.925Z,1014.07
2019-05-23T10:00:04.924Z,1014.07
2019-05-23T10:01:05.135Z,1014.08
2019-05-23T10:02:05.028Z,1014.07
2019-05-23T10:03:04.916Z,1014.10
2019-05-23T10:04:04.930Z,1014.12
2019-05-23T10:05:04.942Z,1014.06
2019-05-23T10:06:04.911Z,1014.05
2019-05-23T10:07:04.914Z,1014.06
2019-05-23T10:08:04.905Z,1014.07
2019-05-23T10:09:04.944Z,1014.05
2019-05-23T10:10:04.923Z,1014.03
2019-05-23T10:11:04.915Z,1014.03
2019-05-23T10:12:04.922Z,1014.02
2019-05-23T10:13:05.112Z,1014.01
2019-05-23T10:14:04.901Z,1014.03
2019-05-23T10:15:04.906Z,1014.01
2019-05-23T10:16:05.235Z,1013.93
2019-05-23T10:17:04.923Z,1013.96
2019-05-23T10:18:04.903Z,1013.90
2019-05-23T10:19:04.903Z,1013.92
2019-05-23T10:20:04.902Z,1013.91
2019-05-23T10:21:04.908Z,1013.91
2019-05-23T10:22:04.901Z,1013.86
2019-05-23T10:23:04.899Z,1013.83
2019-05-23T10:24:04.948Z,1013.86
2019-05-23T10:25:05.099Z,1013.85
2019-05-23T10:26:05.093Z,1013.81
2019-05-23T10:27:04.891Z,1013.80
2019-05-23T10:28:04.899Z,1013.78
2019-05-23T10:29:04.893Z,1013.81
2019-05-23T10:30:04.893Z,1013.81
2019-05-23T10:31:04.879Z,1013.80
2019-05-23T10:32:04.899Z,1013.80
2019-05-23T10:33:11.555Z,1013.74
2019-05-23T10:34:05.078Z,1013.78
2019-05-23T10:35:04.901Z,1013.76
2019-05-23T10:36:04.880Z,1013.73
2019-05-23T10:37:04.878Z,1013.75
2019-05-23T10:38:04.903Z,1013.71
2019-05-23T10:39:04.884Z,1013.69
2019-05-23T10:40:04.888Z,1013.73
2019-05-23T10:41:04.892Z,1013.74
2019-05-23T10:42:04.894Z,1013.75
2019-05-23T10:43:04.866Z,1013.75
2019-05-23T10:44:05.113Z,1013.71
2019-05-23T10:45:04.882Z,1013.67
2019-05-23T10:46:04.867Z,1013.69
2019-05-23T10:47:04.911Z,1013.68
2019-05-23T10:48:04.892Z,1013.72
2019-05-23T10:49:04.869Z,1013.67
2019-05-23T10:50:08.289Z,1013.65
2019-05-23T10:51:04.874Z,1013.65
2019-05-23T10:52:04.861Z,1013.63
2019-05-23T10:53:04.874Z,1013.65
2019-05-23T10:54:05.070Z,1013.59
2019-05-23T10:55:04.847Z,1013.59
2019-05-23T10:56:05.081Z,1013.58
2019-05-23T10:57:04.861Z,1013.56
2019-05-23T10:58:04.860Z,1013.52
2019-05-23T10:59:04.862Z,1013.51
2019-05-23T11:00:04.849Z,1013.49
2019-05-23T11:01:04.858Z,1013.49
2019-05-23T11:02:04.857Z,1013.47
2019-05-23T11:03:04.851Z,1013.48
2019-05-23T11:04:04.840Z,1013.46
2019-05-23T11:05:13.157Z,1013.46
2019-05-23T11:06:15.655Z,1013.46
2019-05-23T11:07:04.848Z,1013.48
2019-05-23T11:08:04.852Z,1013.47
2019-05-23T11:09:04.862Z,1013.46
2019-05-23T11:10:04.857Z,1013.43
2019-05-23T11:11:04.853Z,1013.39
2019-05-23T11:12:04.878Z,1013.39
2019-05-23T11:13:04.849Z,1013.39
2019-05-23T11:14:08.427Z,1013.39
2019-05-23T11:15:04.845Z,1013.36
2019-05-23T11:16:04.844Z,1013.34
2019-05-23T11:17:04.832Z,1013.40
2019-05-23T11:18:04.839Z,1013.36
2019-05-23T11:19:04.832Z,1013.38
2019-05-23T11:20:04.837Z,1013.40
2019-05-23T11:21:04.828Z,1013.40
2019-05-23T11:22:04.832Z,1013.38
2019-05-23T11:23:05.021Z,1013.35
2019-05-23T11:24:04.818Z,1013.36
2019-05-23T11:25:05.045Z,1013.33
2019-05-23T11:26:04.824Z,1013.30
2019-05-23T11:27:04.839Z,1013.32
2019-05-23T11:28:04.824Z,1013.29
2019-05-23T11:29:04.842Z,1013.27
2019-05-23T11:30:04.817Z,1013.30
2019-05-23T11:31:04.825Z,1013.24
2019-05-23T11:32:04.816Z,1013.30
2019-05-23T11:33:04.811Z,1013.25
2019-05-23T11:34:05.018Z,1013.25
2019-05-23T11:35:05.030Z,1013.27
2019-05-23T11:36:05.065Z,1013.21
2019-05-23T11:37:04.811Z,1013.29
2019-05-23T11:38:05.036Z,1013.29
2019-05-23T11:39:04.814Z,1013.31
2019-05-23T11:40:05.016Z,1013.29
2019-05-23T11:41:04.818Z,1013.30
2019-05-23T11:42:05.028Z,1013.27
2019-05-23T11:43:04.820Z,1013.21
2019-05-23T11:44:04.825Z,1013.16
2019-05-23T11:45:04.808Z,1013.23
2019-05-23T11:46:04.838Z,1013.15
2019-05-23T11:47:05.012Z,1013.16
2019-05-23T11:48:04.799Z,1013.17
2019-05-23T11:49:04.813Z,1013.15
2019-05-23T11:50:04.802Z,1013.14
2019-05-23T11:51:04.791Z,1013.13
2019-05-23T11:52:04.821Z,1013.09
2019-05-23T11:53:04.809Z,1013.08
2019-05-23T11:54:08.485Z,1013.05
2019-05-23T11:55:04.792Z,1013.07
2019-05-23T11:56:04.816Z,1013.08
2019-05-23T11:57:04.804Z,1013.08
2019-05-23T11:58:04.802Z,1013.08
2019-05-23T11:59:04.788Z,1013.06
2019-05-23T12:00:05.011Z,1013.03
2019-05-23T12:01:05.106Z,1013.07
2019-05-23T12:02:04.796Z,1013.05
2019-05-23T12:03:04.788Z,1013.01
2019-05-23T12:04:05.012Z,1013.00
2019-05-23T12:05:05.004Z,1012.99
2019-05-23T12:06:05.920Z,1012.98
2019-05-23T12:07:04.816Z,1012.95